sensor_id;sensor_type;location;lat;lon;timestamp;pressure;altitude;pressure_sealevel;temperature;humidity
85304;BME280;75708;47.930;13.782;2024-01-25T00:02:13;97047.03;;;8.20;62.79
85304;BME280;75708;47.930;13.782;2024-01-25T00:04:39;97057.50;;;8.15;63.71
85304;BME280;75708;47.930;13.782;2024-01-25T00:07:04;97065.88;;;8.12;63.69
85304;BME280;75708;47.930;13.782;2024-01-25T00:09:30;97084.09;;;8.15;63.93
85304;BME280;75708;47.930;13.782;2024-01-25T00:11:55;97067.56;;;8.06;63.70
85304;BME280;75708;47.930;13.782;2024-01-25T00:14:21;97054.06;;;7.94;64.18
85304;BME280;75708;47.930;13.782;2024-01-25T00:16:46;97051.63;;;7.86;64.92
85304;BME280;75708;47.930;13.782;2024-01-25T00:19:11;97070.38;;;8.11;63.76
85304;BME280;75708;47.930;13.782;2024-01-25T00:21:43;97077.56;;;8.04;63.96
85304;BME280;75708;47.930;13.782;2024-01-25T00:24:13;97067.56;;;8.06;63.43
85304;BME280;75708;47.930;13.782;2024-01-25T00:26:39;97058.28;;;8.22;61.26
85304;BME280;75708;47.930;13.782;2024-01-25T00:29:04;97052.78;;;8.10;62.26
85304;BME280;75708;47.930;13.782;2024-01-25T00:31:30;97047.88;;;8.14;62.17
85304;BME280;75708;47.930;13.782;2024-01-25T00:33:59;97052.16;;;8.21;62.14
85304;BME280;75708;47.930;13.782;2024-01-25T00:36:25;97053.19;;;8.14;62.56
85304;BME280;75708;47.930;13.782;2024-01-25T00:38:51;97083.72;;;8.05;62.56
85304;BME280;75708;47.930;13.782;2024-01-25T00:41:18;97074.50;;;8.07;63.08
85304;BME280;75708;47.930;13.782;2024-01-25T00:43:46;97068.56;;;8.05;63.52
85304;BME280;75708;47.930;13.782;2024-01-25T00:46:12;97054.28;;;8.00;62.44
85304;BME280;75708;47.930;13.782;2024-01-25T00:48:38;97048.53;;;7.83;64.62
85304;BME280;75708;47.930;13.782;2024-01-25T00:51:08;97058.16;;;7.84;63.93
85304;BME280;75708;47.930;13.782;2024-01-25T00:53:38;97056.75;;;7.81;64.26
85304;BME280;75708;47.930;13.782;2024-01-25T00:56:04;97044.06;;;7.77;63.98
85304;BME280;75708;47.930;13.782;2024-01-25T00:58:30;97054.69;;;7.83;63.37
85304;BME280;75708;47.930;13.782;2024-01-25T01:00:56;97039.16;;;7.87;63.46
85304;BME280;75708;47.930;13.782;2024-01-25T01:03:21;97035.84;;;7.98;62.75
85304;BME280;75708;47.930;13.782;2024-01-25T01:05:47;97041.78;;;8.00;62.79
85304;BME280;75708;47.930;13.782;2024-01-25T01:08:13;97043.16;;;8.09;62.56
85304;BME280;75708;47.930;13.782;2024-01-25T01:10:39;97036.06;;;7.90;63.94
85304;BME280;75708;47.930;13.782;2024-01-25T01:13:04;97038.75;;;7.90;64.14
85304;BME280;75708;47.930;13.782;2024-01-25T01:15:30;97049.78;;;8.00;63.58
85304;BME280;75708;47.930;13.782;2024-01-25T01:17:55;97041.41;;;7.90;63.11
85304;BME280;75708;47.930;13.782;2024-01-25T01:20:21;97036.88;;;7.97;62.80
85304;BME280;75708;47.930;13.782;2024-01-25T01:22:46;97038.91;;;8.02;62.17
85304;BME280;75708;47.930;13.782;2024-01-25T01:25:12;97061.41;;;7.92;63.59
85304;BME280;75708;47.930;13.782;2024-01-25T01:27:37;97064.53;;;7.89;63.19
85304;BME280;75708;47.930;13.782;2024-01-25T01:30:03;97068.78;;;8.04;62.07
85304;BME280;75708;47.930;13.782;2024-01-25T01:32:29;97067.34;;;8.01;61.69
85304;BME280;75708;47.930;13.782;2024-01-25T01:34:54;97067.34;;;8.08;60.96
85304;BME280;75708;47.930;13.782;2024-01-25T01:37:20;97059.16;;;8.03;62.08
85304;BME280;75708;47.930;13.782;2024-01-25T01:39:45;97060.19;;;7.95;62.22
85304;BME280;75708;47.930;13.782;2024-01-25T01:42:11;97058.59;;;7.81;61.79
85304;BME280;75708;47.930;13.782;2024-01-25T01:44:36;97072.91;;;7.86;62.88
85304;BME280;75708;47.930;13.782;2024-01-25T01:47:02;97059.41;;;7.81;61.93
85304;BME280;75708;47.930;13.782;2024-01-25T01:49:28;97067.38;;;7.75;62.70
85304;BME280;75708;47.930;13.782;2024-01-25T01:51:54;97057.75;;;7.87;63.11
85304;BME280;75708;47.930;13.782;2024-01-25T01:54:20;97062.47;;;7.85;62.45
85304;BME280;75708;47.930;13.782;2024-01-25T01:56:46;97052.03;;;7.77;63.82
85304;BME280;75708;47.930;13.782;2024-01-25T01:59:12;97050.41;;;7.76;63.19
85304;BME280;75708;47.930;13.782;2024-01-25T02:01:37;97045.31;;;7.68;63.87
85304;BME280;75708;47.930;13.782;2024-01-25T02:04:04;97058.19;;;7.77;63.33
85304;BME280;75708;47.930;13.782;2024-01-25T02:06:30;97053.28;;;7.81;63.37
85304;BME280;75708;47.930;13.782;2024-01-25T02:08:56;97040.63;;;7.63;64.65
85304;BME280;75708;47.930;13.782;2024-01-25T02:11:24;97038.16;;;7.68;64.38
85304;BME280;75708;47.930;13.782;2024-01-25T02:13:50;97034.03;;;7.79;64.16
85304;BME280;75708;47.930;13.782;2024-01-25T02:16:15;97018.31;;;7.57;66.38
85304;BME280;75708;47.930;13.782;2024-01-25T02:18:41;97014.25;;;7.55;65.61
85304;BME280;75708;47.930;13.782;2024-01-25T02:21:07;97011.53;;;7.75;64.23
85304;BME280;75708;47.930;13.782;2024-01-25T02:23:33;97017.28;;;7.78;64.31
85304;BME280;75708;47.930;13.782;2024-01-25T02:25:58;97002.16;;;7.72;64.32
85304;BME280;75708;47.930;13.782;2024-01-25T02:28:24;97021.59;;;7.73;64.76
85304;BME280;75708;47.930;13.782;2024-01-25T02:30:50;96996.47;;;7.55;66.10
85304;BME280;75708;47.930;13.782;2024-01-25T02:33:15;97005.47;;;7.54;67.04
85304;BME280;75708;47.930;13.782;2024-01-25T02:35:41;96992.59;;;7.45;68.58
85304;BME280;75708;47.930;13.782;2024-01-25T02:38:06;96995.03;;;7.46;68.63
85304;BME280;75708;47.930;13.782;2024-01-25T02:40:32;96994.41;;;7.64;66.10
85304;BME280;75708;47.930;13.782;2024-01-25T02:42:57;96999.91;;;7.63;68.11
85304;BME280;75708;47.930;13.782;2024-01-25T02:45:23;96991.72;;;7.57;66.42
85304;BME280;75708;47.930;13.782;2024-01-25T02:47:49;96995.22;;;7.58;66.26
85304;BME280;75708;47.930;13.782;2024-01-25T02:50:15;96987.25;;;7.45;68.69
85304;BME280;75708;47.930;13.782;2024-01-25T02:52:41;96992.16;;;7.61;66.53
85304;BME280;75708;47.930;13.782;2024-01-25T02:55:07;96993.41;;;7.45;67.68
85304;BME280;75708;47.930;13.782;2024-01-25T02:57:32;96991.75;;;7.51;68.31
85304;BME280;75708;47.930;13.782;2024-01-25T02:59:58;96990.09;;;7.50;67.47
85304;BME280;75708;47.930;13.782;2024-01-25T03:02:24;96980.88;;;7.59;67.20
85304;BME280;75708;47.930;13.782;2024-01-25T03:04:50;96988.91;;;7.46;68.18
85304;BME280;75708;47.930;13.782;2024-01-25T03:07:15;96976.63;;;7.45;68.48
85304;BME280;75708;47.930;13.782;2024-01-25T03:09:41;96967.22;;;7.42;68.27
85304;BME280;75708;47.930;13.782;2024-01-25T03:12:06;96973.78;;;7.33;69.86
85304;BME280;75708;47.930;13.782;2024-01-25T03:14:32;96964.78;;;7.14;70.14
85304;BME280;75708;47.930;13.782;2024-01-25T03:16:58;96965.41;;;7.16;70.42
85304;BME280;75708;47.930;13.782;2024-01-25T03:19:25;96963.75;;;7.35;69.97
85304;BME280;75708;47.930;13.782;2024-01-25T03:21:54;96939.88;;;7.15;71.09
85304;BME280;75708;47.930;13.782;2024-01-25T03:24:21;96967.03;;;7.24;71.20
85304;BME280;75708;47.930;13.782;2024-01-25T03:26:46;96957.03;;;7.26;71.17
85304;BME280;75708;47.930;13.782;2024-01-25T03:29:12;96977.06;;;7.29;72.08
85304;BME280;75708;47.930;13.782;2024-01-25T03:31:37;96953.16;;;7.09;72.70
85304;BME280;75708;47.930;13.782;2024-01-25T03:34:04;96956.84;;;7.08;73.27
85304;BME280;75708;47.930;13.782;2024-01-25T03:36:30;96969.06;;;7.22;71.05
85304;BME280;75708;47.930;13.782;2024-01-25T03:38:56;96992.38;;;7.33;71.18
85304;BME280;75708;47.930;13.782;2024-01-25T03:41:22;96979.91;;;7.34;71.09
85304;BME280;75708;47.930;13.782;2024-01-25T03:43:48;96981.94;;;7.32;71.58
85304;BME280;75708;47.930;13.782;2024-01-25T03:46:14;96980.53;;;7.09;73.37
85304;BME280;75708;47.930;13.782;2024-01-25T03:48:41;96976.84;;;7.17;73.80
85304;BME280;75708;47.930;13.782;2024-01-25T03:51:07;96979.94;;;7.21;74.54
85304;BME280;75708;47.930;13.782;2024-01-25T03:53:33;96983.00;;;7.17;74.10
85304;BME280;75708;47.930;13.782;2024-01-25T03:55:58;96971.94;;;7.14;74.83
85304;BME280;75708;47.930;13.782;2024-01-25T03:58:24;96973.38;;;7.10;75.55
85304;BME280;75708;47.930;13.782;2024-01-25T04:00:50;96972.97;;;7.13;74.57
85304;BME280;75708;47.930;13.782;2024-01-25T04:03:15;96978.47;;;7.25;73.30
85304;BME280;75708;47.930;13.782;2024-01-25T04:05:41;96974.00;;;7.18;73.77
85304;BME280;75708;47.930;13.782;2024-01-25T04:08:06;96972.97;;;7.06;74.46
85304;BME280;75708;47.930;13.782;2024-01-25T04:10:33;96978.69;;;7.36;71.32
85304;BME280;75708;47.930;13.782;2024-01-25T04:12:58;96976.84;;;7.43;71.74
85304;BME280;75708;47.930;13.782;2024-01-25T04:15:26;96964.59;;;7.36;72.32
85304;BME280;75708;47.930;13.782;2024-01-25T04:17:52;96968.44;;;7.40;71.59
85304;BME280;75708;47.930;13.782;2024-01-25T04:20:19;96975.59;;;7.52;71.35
85304;BME280;75708;47.930;13.782;2024-01-25T04:22:44;96957.41;;;7.56;70.99
85304;BME280;75708;47.930;13.782;2024-01-25T04:25:10;96954.34;;;7.46;71.98
85304;BME280;75708;47.930;13.782;2024-01-25T04:27:39;96958.59;;;7.60;70.59
85304;BME280;75708;47.930;13.782;2024-01-25T04:30:06;96958.44;;;7.35;73.14
85304;BME280;75708;47.930;13.782;2024-01-25T04:32:32;96966.22;;;7.37;72.44
85304;BME280;75708;47.930;13.782;2024-01-25T04:34:57;96974.41;;;7.29;72.57
85304;BME280;75708;47.930;13.782;2024-01-25T04:37:23;96977.03;;;7.22;74.68
85304;BME280;75708;47.930;13.782;2024-01-25T04:39:48;96980.13;;;7.19;74.02
85304;BME280;75708;47.930;13.782;2024-01-25T04:42:14;96975.44;;;7.28;72.77
85304;BME280;75708;47.930;13.782;2024-01-25T04:44:39;96978.06;;;7.34;72.32
85304;BME280;75708;47.930;13.782;2024-01-25T04:47:05;96975.41;;;7.34;72.87
85304;BME280;75708;47.930;13.782;2024-01-25T04:49:30;96977.47;;;7.26;73.04
85304;BME280;75708;47.930;13.782;2024-01-25T04:51:56;96979.91;;;7.34;71.96
85304;BME280;75708;47.930;13.782;2024-01-25T04:54:21;96984.19;;;7.22;72.96
85304;BME280;75708;47.930;13.782;2024-01-25T04:56:47;96965.00;;;7.20;72.80
85304;BME280;75708;47.930;13.782;2024-01-25T04:59:12;96973.38;;;7.10;73.14
85304;BME280;75708;47.930;13.782;2024-01-25T05:01:38;96969.69;;;7.24;71.58
85304;BME280;75708;47.930;13.782;2024-01-25T05:04:04;96965.63;;;7.08;72.46
85304;BME280;75708;47.930;13.782;2024-01-25T05:06:29;96957.63;;;7.15;72.11
85304;BME280;75708;47.930;13.782;2024-01-25T05:08:55;96962.53;;;7.05;72.76
85304;BME280;75708;47.930;13.782;2024-01-25T05:11:20;96961.72;;;7.31;69.66
85304;BME280;75708;47.930;13.782;2024-01-25T05:13:47;96969.69;;;7.24;71.74
85304;BME280;75708;47.930;13.782;2024-01-25T05:16:12;96975.63;;;7.20;70.64
85304;BME280;75708;47.930;13.782;2024-01-25T05:18:38;96979.31;;;7.18;71.29
85304;BME280;75708;47.930;13.782;2024-01-25T05:21:03;96966.81;;;7.39;69.77
85304;BME280;75708;47.930;13.782;2024-01-25T05:23:29;96983.78;;;7.31;69.90
85304;BME280;75708;47.930;13.782;2024-01-25T05:25:55;96977.06;;;7.35;70.61
85304;BME280;75708;47.930;13.782;2024-01-25T05:28:20;96982.78;;;7.26;71.48
85304;BME280;75708;47.930;13.782;2024-01-25T05:30:46;96980.53;;;7.16;71.46
85304;BME280;75708;47.930;13.782;2024-01-25T05:33:11;97004.84;;;7.06;74.03
85304;BME280;75708;47.930;13.782;2024-01-25T05:35:37;97006.06;;;6.97;74.54
85304;BME280;75708;47.930;13.782;2024-01-25T05:38:02;97011.78;;;6.88;76.21
85304;BME280;75708;47.930;13.782;2024-01-25T05:40:28;97007.66;;;6.72;77.37
85304;BME280;75708;47.930;13.782;2024-01-25T05:42:54;97017.88;;;6.68;78.66
85304;BME280;75708;47.930;13.782;2024-01-25T05:45:19;97018.47;;;6.57;80.35
85304;BME280;75708;47.930;13.782;2024-01-25T05:47:47;97039.44;;;6.39;82.83
85304;BME280;75708;47.930;13.782;2024-01-25T05:50:12;97043.38;;;6.09;84.64
85304;BME280;75708;47.930;13.782;2024-01-25T05:52:38;97031.06;;;5.94;85.15
85304;BME280;75708;47.930;13.782;2024-01-25T05:55:05;97034.28;;;5.90;86.05
85304;BME280;75708;47.930;13.782;2024-01-25T05:57:31;97061.16;;;5.80;85.88
85304;BME280;75708;47.930;13.782;2024-01-25T05:59:57;97050.56;;;5.80;84.03
85304;BME280;75708;47.930;13.782;2024-01-25T06:02:23;97052.94;;;5.75;84.56
85304;BME280;75708;47.930;13.782;2024-01-25T06:04:49;97053.28;;;5.65;84.16
85304;BME280;75708;47.930;13.782;2024-01-25T06:07:14;97052.47;;;5.65;83.45
85304;BME280;75708;47.930;13.782;2024-01-25T06:09:40;97064.34;;;5.69;83.95
85304;BME280;75708;47.930;13.782;2024-01-25T06:12:06;97056.53;;;5.61;82.06
85304;BME280;75708;47.930;13.782;2024-01-25T06:14:31;97067.97;;;5.61;83.55
85304;BME280;75708;47.930;13.782;2024-01-25T06:16:57;97056.75;;;5.66;84.09
85304;BME280;75708;47.930;13.782;2024-01-25T06:19:22;97080.75;;;5.58;85.13
85304;BME280;75708;47.930;13.782;2024-01-25T06:21:48;97077.94;;;5.59;82.95
85304;BME280;75708;47.930;13.782;2024-01-25T06:24:13;97080.38;;;5.61;82.15
85304;BME280;75708;47.930;13.782;2024-01-25T06:26:39;97095.97;;;5.71;82.61
85304;BME280;75708;47.930;13.782;2024-01-25T06:29:04;97090.88;;;5.76;82.40
85304;BME280;75708;47.930;13.782;2024-01-25T06:31:30;97073.94;;;5.70;82.14
85304;BME280;75708;47.930;13.782;2024-01-25T06:33:55;97110.84;;;5.72;82.40
85304;BME280;75708;47.930;13.782;2024-01-25T06:36:22;97094.47;;;5.61;83.22
85304;BME280;75708;47.930;13.782;2024-01-25T06:38:47;97098.16;;;5.67;82.15
85304;BME280;75708;47.930;13.782;2024-01-25T06:41:13;97095.31;;;5.68;81.96
85304;BME280;75708;47.930;13.782;2024-01-25T06:43:40;97119.56;;;5.65;82.13
85304;BME280;75708;47.930;13.782;2024-01-25T06:46:06;97125.25;;;5.62;83.01
85304;BME280;75708;47.930;13.782;2024-01-25T06:48:32;97102.50;;;5.75;81.93
85304;BME280;75708;47.930;13.782;2024-01-25T06:50:57;97112.47;;;5.73;82.34
85304;BME280;75708;47.930;13.782;2024-01-25T06:53:23;97113.13;;;5.81;80.79
85304;BME280;75708;47.930;13.782;2024-01-25T06:55:48;97111.53;;;5.80;81.27
85304;BME280;75708;47.930;13.782;2024-01-25T06:58:14;97115.22;;;5.86;80.78
85304;BME280;75708;47.930;13.782;2024-01-25T07:00:39;97108.47;;;5.83;80.63
85304;BME280;75708;47.930;13.782;2024-01-25T07:03:08;97114.28;;;5.93;80.12
85304;BME280;75708;47.930;13.782;2024-01-25T07:05:33;97116.22;;;6.06;79.47
85304;BME280;75708;47.930;13.782;2024-01-25T07:08:01;97126.09;;;6.25;77.33
85304;BME280;75708;47.930;13.782;2024-01-25T07:10:26;97123.03;;;6.22;78.64
85304;BME280;75708;47.930;13.782;2024-01-25T07:12:52;97127.72;;;6.20;78.94
85304;BME280;75708;47.930;13.782;2024-01-25T07:15:19;97122.91;;;6.02;80.40
85304;BME280;75708;47.930;13.782;2024-01-25T07:17:44;97152.19;;;6.15;78.94
85304;BME280;75708;47.930;13.782;2024-01-25T07:20:10;97145.47;;;6.19;78.03
85304;BME280;75708;47.930;13.782;2024-01-25T07:22:36;97141.16;;;6.18;78.82
85304;BME280;75708;47.930;13.782;2024-01-25T07:25:01;97142.91;;;6.32;77.51
85304;BME280;75708;47.930;13.782;2024-01-25T07:27:27;97128.66;;;6.40;77.10
85304;BME280;75708;47.930;13.782;2024-01-25T07:29:53;97137.66;;;6.46;76.80
85304;BME280;75708;47.930;13.782;2024-01-25T07:32:19;97137.00;;;6.37;77.10
85304;BME280;75708;47.930;13.782;2024-01-25T07:34:45;97121.16;;;6.50;75.58
85304;BME280;75708;47.930;13.782;2024-01-25T07:37:11;97113.94;;;6.44;75.73
85304;BME280;75708;47.930;13.782;2024-01-25T07:39:37;97127.03;;;6.46;76.37
85304;BME280;75708;47.930;13.782;2024-01-25T07:42:03;97138.03;;;6.42;75.97
85304;BME280;75708;47.930;13.782;2024-01-25T07:44:28;97148.44;;;6.37;76.71
85304;BME280;75708;47.930;13.782;2024-01-25T07:46:54;97161.81;;;6.57;74.61
85304;BME280;75708;47.930;13.782;2024-01-25T07:49:19;97172.09;;;6.32;76.46
85304;BME280;75708;47.930;13.782;2024-01-25T07:51:45;97192.34;;;6.40;76.78
85304;BME280;75708;47.930;13.782;2024-01-25T07:54:12;97203.63;;;6.49;75.43
85304;BME280;75708;47.930;13.782;2024-01-25T07:56:37;97216.06;;;6.48;76.95
85304;BME280;75708;47.930;13.782;2024-01-25T07:59:03;97224.66;;;6.50;77.02
85304;BME280;75708;47.930;13.782;2024-01-25T08:01:28;97224.06;;;6.55;77.01
85304;BME280;75708;47.930;13.782;2024-01-25T08:03:54;97214.91;;;6.64;75.03
85304;BME280;75708;47.930;13.782;2024-01-25T08:06:21;97204.09;;;6.59;75.42
85304;BME280;75708;47.930;13.782;2024-01-25T08:08:46;97211.00;;;6.60;75.32
85304;BME280;75708;47.930;13.782;2024-01-25T08:11:12;97202.16;;;6.46;75.57
85304;BME280;75708;47.930;13.782;2024-01-25T08:13:37;97205.75;;;6.32;76.49
85304;BME280;75708;47.930;13.782;2024-01-25T08:16:03;97211.88;;;6.32;76.46
85304;BME280;75708;47.930;13.782;2024-01-25T08:18:29;97222.06;;;6.29;75.79
85304;BME280;75708;47.930;13.782;2024-01-25T08:20:55;97204.94;;;6.31;75.53
85304;BME280;75708;47.930;13.782;2024-01-25T08:23:21;97217.94;;;6.54;72.74
85304;BME280;75708;47.930;13.782;2024-01-25T08:25:46;97208.56;;;6.58;71.82
85304;BME280;75708;47.930;13.782;2024-01-25T08:28:12;97214.88;;;6.51;72.79
85304;BME280;75708;47.930;13.782;2024-01-25T08:30:38;97212.78;;;6.46;73.37
85304;BME280;75708;47.930;13.782;2024-01-25T08:33:03;97203.44;;;6.50;72.46
85304;BME280;75708;47.930;13.782;2024-01-25T08:35:29;97219.38;;;6.57;70.62
85304;BME280;75708;47.930;13.782;2024-01-25T08:37:57;97193.06;;;6.62;70.57
85304;BME280;75708;47.930;13.782;2024-01-25T08:40:23;97218.59;;;6.63;71.24
85304;BME280;75708;47.930;13.782;2024-01-25T08:42:48;97187.63;;;6.42;71.56
85304;BME280;75708;47.930;13.782;2024-01-25T08:45:14;97223.28;;;6.61;68.86
85304;BME280;75708;47.930;13.782;2024-01-25T08:47:40;97229.72;;;6.79;69.60
85304;BME280;75708;47.930;13.782;2024-01-25T08:50:06;97223.34;;;6.74;70.15
85304;BME280;75708;47.930;13.782;2024-01-25T08:52:36;97232.25;;;6.94;68.75
85304;BME280;75708;47.930;13.782;2024-01-25T08:55:03;97220.19;;;6.92;67.43
85304;BME280;75708;47.930;13.782;2024-01-25T08:57:30;97229.31;;;6.83;68.36
85304;BME280;75708;47.930;13.782;2024-01-25T08:59:56;97236.84;;;6.79;68.51
85304;BME280;75708;47.930;13.782;2024-01-25T09:02:26;97214.59;;;6.80;69.27
85304;BME280;75708;47.930;13.782;2024-01-25T09:04:54;97234.31;;;6.64;71.09
85304;BME280;75708;47.930;13.782;2024-01-25T09:07:20;97233.66;;;6.56;73.93
85304;BME280;75708;47.930;13.782;2024-01-25T09:09:45;97239.41;;;6.59;73.82
85304;BME280;75708;47.930;13.782;2024-01-25T09:12:11;97228.41;;;6.69;73.93
85304;BME280;75708;47.930;13.782;2024-01-25T09:14:38;97251.59;;;6.82;72.28
85304;BME280;75708;47.930;13.782;2024-01-25T09:17:04;97237.94;;;6.91;69.72
85304;BME280;75708;47.930;13.782;2024-01-25T09:19:30;97242.91;;;7.07;71.49
85304;BME280;75708;47.930;13.782;2024-01-25T09:21:55;97242.19;;;7.27;70.70
85304;BME280;75708;47.930;13.782;2024-01-25T09:24:23;97240.34;;;7.21;71.45
85304;BME280;75708;47.930;13.782;2024-01-25T09:26:49;97249.16;;;7.41;70.59
85304;BME280;75708;47.930;13.782;2024-01-25T09:29:14;97243.91;;;7.47;68.57
85304;BME280;75708;47.930;13.782;2024-01-25T09:31:40;97252.00;;;7.26;66.90
85304;BME280;75708;47.930;13.782;2024-01-25T09:34:05;97246.63;;;7.13;67.40
85304;BME280;75708;47.930;13.782;2024-01-25T09:36:32;97258.72;;;7.22;69.69
85304;BME280;75708;47.930;13.782;2024-01-25T09:38:57;97260.47;;;7.02;70.43
85304;BME280;75708;47.930;13.782;2024-01-25T09:41:23;97262.97;;;7.10;69.72
85304;BME280;75708;47.930;13.782;2024-01-25T09:43:48;97274.78;;;7.01;69.55
85304;BME280;75708;47.930;13.782;2024-01-25T09:46:14;97291.34;;;7.03;71.23
85304;BME280;75708;47.930;13.782;2024-01-25T09:48:42;97289.06;;;7.00;71.72
85304;BME280;75708;47.930;13.782;2024-01-25T09:51:09;97296.38;;;6.91;71.80
85304;BME280;75708;47.930;13.782;2024-01-25T09:53:37;97285.91;;;7.24;65.72
85304;BME280;75708;47.930;13.782;2024-01-25T09:56:12;97295.50;;;7.73;61.11
85304;BME280;75708;47.930;13.782;2024-01-25T09:58:44;97297.16;;;7.87;64.97
85304;BME280;75708;47.930;13.782;2024-01-25T10:01:13;97277.91;;;7.72;61.32
85304;BME280;75708;47.930;13.782;2024-01-25T10:03:44;97289.56;;;7.84;61.56
85304;BME280;75708;47.930;13.782;2024-01-25T10:06:11;97270.97;;;8.83;55.26
85304;BME280;75708;47.930;13.782;2024-01-25T10:08:36;97249.00;;;9.00;56.28
85304;BME280;75708;47.930;13.782;2024-01-25T10:11:03;97260.91;;;10.68;51.41
85304;BME280;75708;47.930;13.782;2024-01-25T10:13:29;97269.75;;;8.85;56.34
85304;BME280;75708;47.930;13.782;2024-01-25T10:15:55;97286.19;;;8.56;58.71
85304;BME280;75708;47.930;13.782;2024-01-25T10:18:22;97262.00;;;8.71;58.80
85304;BME280;75708;47.930;13.782;2024-01-25T10:20:48;97251.16;;;10.31;57.49
85304;BME280;75708;47.930;13.782;2024-01-25T10:23:13;97254.66;;;9.68;56.64
85304;BME280;75708;47.930;13.782;2024-01-25T10:25:39;97230.06;;;9.60;56.64
85304;BME280;75708;47.930;13.782;2024-01-25T10:28:05;97244.13;;;8.84;58.63
85304;BME280;75708;47.930;13.782;2024-01-25T10:30:33;97236.22;;;8.38;59.46
85304;BME280;75708;47.930;13.782;2024-01-25T10:33:00;97236.41;;;8.50;60.65
85304;BME280;75708;47.930;13.782;2024-01-25T10:35:26;97229.25;;;8.50;61.37
85304;BME280;75708;47.930;13.782;2024-01-25T10:37:52;97213.44;;;8.62;61.95
85304;BME280;75708;47.930;13.782;2024-01-25T10:40:18;97241.50;;;8.18;63.49
85304;BME280;75708;47.930;13.782;2024-01-25T10:42:44;97229.88;;;8.26;62.93
85304;BME280;75708;47.930;13.782;2024-01-25T10:45:10;97232.31;;;7.88;63.07
85304;BME280;75708;47.930;13.782;2024-01-25T10:47:36;97243.72;;;7.69;65.11
85304;BME280;75708;47.930;13.782;2024-01-25T10:50:03;97236.56;;;7.69;64.14
85304;BME280;75708;47.930;13.782;2024-01-25T10:52:31;97235.31;;;7.59;64.17
85304;BME280;75708;47.930;13.782;2024-01-25T10:54:57;97242.31;;;7.79;66.51
85304;BME280;75708;47.930;13.782;2024-01-25T10:57:23;97236.31;;;7.44;66.17
85304;BME280;75708;47.930;13.782;2024-01-25T10:59:49;97245.69;;;7.40;65.18
85304;BME280;75708;47.930;13.782;2024-01-25T11:02:18;97244.28;;;7.44;64.41
85304;BME280;75708;47.930;13.782;2024-01-25T11:04:53;97236.78;;;10.75;55.28
85304;BME280;75708;47.930;13.782;2024-01-25T11:07:20;97237.59;;;9.69;55.93
85304;BME280;75708;47.930;13.782;2024-01-25T11:09:51;97231.88;;;8.77;57.32
85304;BME280;75708;47.930;13.782;2024-01-25T11:12:18;97190.25;;;9.27;59.84
85304;BME280;75708;47.930;13.782;2024-01-25T11:14:44;97223.88;;;11.75;52.13
85304;BME280;75708;47.930;13.782;2024-01-25T11:17:20;97205.91;;;11.34;49.10
85304;BME280;75708;47.930;13.782;2024-01-25T11:19:48;97213.72;;;10.62;51.50
85304;BME280;75708;47.930;13.782;2024-01-25T11:22:14;97193.75;;;14.38;43.63
85304;BME280;75708;47.930;13.782;2024-01-25T11:24:40;97208.88;;;14.10;42.47
85304;BME280;75708;47.930;13.782;2024-01-25T11:27:06;97200.47;;;13.90;43.77
85304;BME280;75708;47.930;13.782;2024-01-25T11:29:33;97198.06;;;13.88;43.40
85304;BME280;75708;47.930;13.782;2024-01-25T11:31:58;97227.31;;;10.97;51.43
85304;BME280;75708;47.930;13.782;2024-01-25T11:34:24;97231.34;;;10.20;54.94
85304;BME280;75708;47.930;13.782;2024-01-25T11:36:50;97232.09;;;9.64;55.95
85304;BME280;75708;47.930;13.782;2024-01-25T11:39:16;97216.91;;;9.65;56.24
85304;BME280;75708;47.930;13.782;2024-01-25T11:41:43;97217.06;;;9.38;56.33
85304;BME280;75708;47.930;13.782;2024-01-25T11:44:11;97226.28;;;10.05;53.39
85304;BME280;75708;47.930;13.782;2024-01-25T11:46:36;97211.84;;;12.07;47.62
85304;BME280;75708;47.930;13.782;2024-01-25T11:49:02;97192.97;;;11.90;46.95
85304;BME280;75708;47.930;13.782;2024-01-25T11:51:27;97215.38;;;10.56;51.21
85304;BME280;75708;47.930;13.782;2024-01-25T11:53:53;97218.59;;;9.91;53.59
85304;BME280;75708;47.930;13.782;2024-01-25T11:56:26;97223.84;;;9.72;54.93
85304;BME280;75708;47.930;13.782;2024-01-25T11:58:53;97211.28;;;9.79;53.39
85304;BME280;75708;47.930;13.782;2024-01-25T12:01:19;97202.19;;;13.51;43.94
85304;BME280;75708;47.930;13.782;2024-01-25T14:05:42;97151.47;;;8.15;56.80
85304;BME280;75708;47.930;13.782;2024-01-25T14:08:07;97157.75;;;8.54;55.90
85304;BME280;75708;47.930;13.782;2024-01-25T14:10:33;97156.13;;;8.53;57.24
85304;BME280;75708;47.930;13.782;2024-01-25T14:13:00;97150.81;;;8.40;57.53
85304;BME280;75708;47.930;13.782;2024-01-25T14:15:26;97146.72;;;8.44;57.10
85304;BME280;75708;47.930;13.782;2024-01-25T14:17:51;97154.28;;;8.47;57.76
85304;BME280;75708;47.930;13.782;2024-01-25T14:20:17;97139.13;;;8.47;57.82
85304;BME280;75708;47.930;13.782;2024-01-25T14:22:43;97147.34;;;8.39;55.58
85304;BME280;75708;47.930;13.782;2024-01-25T14:25:09;97141.38;;;8.30;57.96
85304;BME280;75708;47.930;13.782;2024-01-25T14:27:35;97141.78;;;8.27;58.30
85304;BME280;75708;47.930;13.782;2024-01-25T14:30:01;97137.94;;;8.17;58.94
85304;BME280;75708;47.930;13.782;2024-01-25T14:32:29;97136.75;;;8.00;58.73
85304;BME280;75708;47.930;13.782;2024-01-25T14:34:54;97130.59;;;7.99;59.73
85304;BME280;75708;47.930;13.782;2024-01-25T14:37:20;97129.75;;;8.12;59.68
85304;BME280;75708;47.930;13.782;2024-01-25T14:39:45;97127.53;;;7.96;59.33
85304;BME280;75708;47.930;13.782;2024-01-25T14:42:11;97135.50;;;8.02;60.14
85304;BME280;75708;47.930;13.782;2024-01-25T14:44:37;97135.94;;;7.79;60.19
85304;BME280;75708;47.930;13.782;2024-01-25T14:47:03;97135.31;;;7.71;60.96
85304;BME280;75708;47.930;13.782;2024-01-25T14:49:29;97137.97;;;7.84;60.48
85304;BME280;75708;47.930;13.782;2024-01-25T14:51:54;97142.28;;;7.72;61.84
85304;BME280;75708;47.930;13.782;2024-01-25T14:54:20;97134.28;;;7.65;61.65
85304;BME280;75708;47.930;13.782;2024-01-25T14:56:45;97124.66;;;7.57;61.18